Time;durP1;ratioP1;P1;durP2;ratioP2;P2;SDS_P1;SDS_P2;PMS_P1;PMS_P2;Temp;Humidity;BMP_temperature;BMP_pressure;BME280_temperature;BME280_humidity;BME280_pressure;Samples;Min_cycle;Max_cycle;Signal;HPM_P1;HPM_P2
2022/12/06 00:01:43;;;;;;;4.78;1.13;;;5.40;99.90;;;;;;5134350;28;20047;-65
2022/12/06 00:04:11;;;;;;;5.90;1.27;;;5.60;99.90;;;;;;5134313;28;20032;-65
2022/12/06 00:06:44;;;;;;;3.95;1.20;;;5.60;99.90;;;;;;5134523;28;20195;-65
2022/12/06 00:09:27;;;;;;;4.45;1.20;;;5.30;99.90;;;;;;5134293;28;20047;-65
2022/12/06 00:11:54;;;;;;;3.97;1.00;;;5.40;99.90;;;;;;5134856;28;20059;-65
2022/12/06 00:14:21;;;;;;;2.83;1.00;;;5.50;99.90;;;;;;5134519;27;20043;-65
2022/12/06 00:16:47;;;;;;;2.35;1.00;;;5.40;99.90;;;;;;5138309;27;20043;-65
2022/12/06 00:19:15;;;;;;;3.45;0.90;;;5.30;99.90;;;;;;5138431;27;20050;-65
2022/12/06 00:21:42;;;;;;;3.38;1.08;;;5.50;99.90;;;;;;5119590;27;20050;-65
2022/12/06 00:24:11;;;;;;;5.05;0.88;;;5.50;99.90;;;;;;5138078;27;20051;-65
2022/12/06 00:26:38;;;;;;;4.15;1.02;;;5.40;99.90;;;;;;5138025;27;20047;-65
2022/12/06 00:29:05;;;;;;;5.70;1.10;;;5.50;99.90;;;;;;5137992;27;20035;-65
2022/12/06 00:31:33;;;;;;;3.78;1.00;;;5.50;99.90;;;;;;5119859;27;20066;-65
2022/12/06 00:33:59;;;;;;;3.60;1.13;;;5.40;99.90;;;;;;5119528;27;20130;-65
2022/12/06 00:36:28;;;;;;;2.97;0.90;;;5.40;99.90;;;;;;5119580;27;20177;-65
2022/12/06 00:38:54;;;;;;;4.32;0.80;;;5.50;99.90;;;;;;5119409;27;20082;-65
2022/12/06 00:41:22;;;;;;;3.78;1.00;;;5.30;99.90;;;;;;5120476;27;20054;-65
2022/12/06 00:43:49;;;;;;;3.95;0.93;;;5.40;99.90;;;;;;5138445;27;20378;-65
2022/12/06 00:46:17;;;;;;;3.40;0.88;;;5.50;99.90;;;;;;5137646;27;20072;-65
2022/12/06 00:48:44;;;;;;;2.92;0.93;;;5.40;99.90;;;;;;5103285;27;20047;-65
2022/12/06 00:51:11;;;;;;;3.33;0.80;;;5.30;99.90;;;;;;5120283;27;20065;-65
2022/12/06 00:53:37;;;;;;;2.38;0.70;;;5.40;99.90;;;;;;5118928;27;20051;-65
2022/12/06 00:56:03;;;;;;;2.92;0.82;;;5.30;99.90;;;;;;5119176;27;20390;-65
2022/12/06 00:58:29;;;;;;;4.43;0.80;;;5.30;99.90;;;;;;5138259;27;20435;-65
2022/12/06 01:00:55;;;;;;;1.60;0.80;;;5.20;99.90;;;;;;5137329;27;20045;-65
2022/12/06 01:03:22;;;;;;;2.95;0.70;;;5.30;99.90;;;;;;5136908;27;20423;-65
2022/12/06 01:05:49;;;;;;;2.65;0.65;;;5.30;99.90;;;;;;5118931;27;20151;-65
2022/12/06 01:08:17;;;;;;;2.10;0.60;;;5.40;99.90;;;;;;5137646;27;20096;-65
2022/12/06 01:10:53;;;;;;;1.88;0.57;;;5.20;99.90;;;;;;5118863;27;20035;-65
2022/12/06 01:13:19;;;;;;;2.05;0.80;;;5.30;99.90;;;;;;5119307;27;20119;-65
2022/12/06 01:15:45;;;;;;;1.58;0.60;;;5.80;99.90;;;;;;5137096;27;20059;-65
2022/12/06 01:18:11;;;;;;;2.03;0.80;;;5.90;99.90;;;;;;5118871;27;20085;-65
2022/12/06 01:20:36;;;;;;;1.85;0.73;;;5.80;99.90;;;;;;5137779;27;20108;-65
2022/12/06 01:23:02;;;;;;;4.20;0.80;;;5.60;99.90;;;;;;5137622;27;20352;-65
2022/12/06 01:25:29;;;;;;;2.53;0.80;;;5.90;99.90;;;;;;5136316;27;20047;-66
2022/12/06 01:27:55;;;;;;;3.95;1.00;;;5.30;99.90;;;;;;5137095;27;20047;-65
2022/12/06 01:30:21;;;;;;;2.83;0.70;;;5.30;99.90;;;;;;5118915;27;20107;-65
2022/12/06 01:32:47;;;;;;;3.20;0.60;;;5.40;99.90;;;;;;5136728;27;20395;-65
2022/12/06 01:35:12;;;;;;;2.83;0.70;;;6.10;99.90;;;;;;5118580;27;20528;-65
2022/12/06 01:37:38;;;;;;;1.58;0.60;;;5.60;99.90;;;;;;5136547;27;20043;-65
2022/12/06 01:40:04;;;;;;;3.58;1.17;;;5.30;99.90;;;;;;5137159;27;20047;-65
2022/12/06 01:42:30;;;;;;;2.42;1.20;;;5.40;99.90;;;;;;5136425;27;20192;-65
2022/12/06 01:45:00;;;;;;;6.80;2.42;;;6.00;99.90;;;;;;5136874;27;20130;-65
2022/12/06 01:47:29;;;;;;;6.43;4.15;;;5.30;99.90;;;;;;5136207;27;20042;-65
2022/12/06 01:50:12;;;;;;;7.85;4.68;;;5.40;99.90;;;;;;5117926;27;20047;-66
2022/12/06 01:52:43;;;;;;;6.50;3.63;;;5.50;99.90;;;;;;5136992;27;20150;-65
2022/12/06 01:55:11;;;;;;;5.97;2.90;;;5.80;99.90;;;;;;5118786;27;20058;-65
2022/12/06 01:57:36;;;;;;;4.20;1.90;;;5.30;99.90;;;;;;5135922;27;20436;-66
2022/12/06 02:00:03;;;;;;;3.28;1.30;;;5.30;99.90;;;;;;5136784;27;20050;-65
2022/12/06 02:02:29;;;;;;;7.45;1.40;;;5.20;99.90;;;;;;5117807;27;20051;-65
2022/12/06 02:04:56;;;;;;;2.38;0.80;;;5.90;99.90;;;;;;5118098;27;20043;-65
2022/12/06 02:07:23;;;;;;;2.38;0.80;;;5.30;99.90;;;;;;5101116;27;20039;-65
2022/12/06 02:09:51;;;;;;;3.25;1.08;;;5.90;99.90;;;;;;5135979;27;20131;-65
2022/12/06 02:12:16;;;;;;;2.92;0.90;;;5.60;99.90;;;;;;5101244;27;20039;-65
2022/12/06 02:14:47;;;;;;;2.78;0.80;;;5.40;99.90;;;;;;5135897;27;20049;-65
2022/12/06 02:17:40;;;;;;;2.88;0.90;;;5.50;99.90;;;;;;5100768;27;20062;-65
2022/12/06 02:20:15;;;;;;;4.72;0.60;;;5.30;99.90;;;;;;5136165;27;20391;-65
2022/12/06 02:23:11;;;;;;;1.42;0.80;;;5.50;99.90;;;;;;5135633;27;20053;-65
2022/12/06 02:26:10;;;;;;;2.30;1.10;;;5.30;99.90;;;;;;5136545;27;20051;-65
2022/12/06 02:29:05;;;;;;;6.20;1.48;;;5.30;99.90;;;;;;5135924;27;20043;-65
2022/12/06 02:31:51;;;;;;;6.43;2.10;;;5.20;99.90;;;;;;5135567;27;20050;-66
2022/12/06 02:34:39;;;;;;;3.60;1.40;;;4.90;99.90;;;;;;5117733;27;20054;-65
2022/12/06 02:37:19;;;;;;;2.63;1.55;;;5.10;99.90;;;;;;5134990;27;20086;-65
2022/12/06 02:39:48;;;;;;;3.03;1.08;;;5.00;99.90;;;;;;5100588;27;20497;-65
2022/12/06 02:42:27;;;;;;;2.85;0.88;;;5.20;99.90;;;;;;5135245;27;20092;-65
2022/12/06 02:44:55;;;;;;;1.10;0.57;;;5.10;99.90;;;;;;5117042;27;20525;-66
2022/12/06 02:47:26;;;;;;;1.67;0.63;;;5.30;99.90;;;;;;5135288;27;20051;-65
2022/12/06 02:49:53;;;;;;;3.20;0.70;;;5.10;99.90;;;;;;5135792;27;20103;-65
2022/12/06 02:52:25;;;;;;;3.70;0.80;;;5.30;99.90;;;;;;5135053;27;20059;-65
2022/12/06 02:54:54;;;;;;;3.78;0.70;;;5.10;99.90;;;;;;5117015;27;20130;-65
2022/12/06 02:57:32;;;;;;;1.60;0.52;;;5.50;99.90;;;;;;5117016;27;20054;-66
2022/12/06 02:59:58;;;;;;;1.63;0.60;;;5.60;99.90;;;;;;5135095;27;20074;-65
2022/12/06 03:02:23;;;;;;;1.70;0.60;;;5.20;99.90;;;;;;5117088;27;20477;-65
2022/12/06 03:05:17;;;;;;;2.85;0.52;;;5.30;99.90;;;;;;5135210;27;20471;-65
2022/12/06 03:07:45;;;;;;;2.20;0.50;;;5.00;99.90;;;;;;5134923;27;20474;-65
2022/12/06 03:10:44;;;;;;;1.35;0.70;;;5.10;99.90;;;;;;5116317;27;20499;-65
2022/12/06 03:13:26;;;;;;;3.17;0.90;;;5.60;99.90;;;;;;5120196;27;20059;-65
2022/12/06 03:16:03;;;;;;;1.60;0.50;;;5.10;99.90;;;;;;5135170;27;20433;-65
2022/12/06 03:18:42;;;;;;;3.38;0.68;;;5.90;99.90;;;;;;5135473;27;20391;-65
2022/12/06 03:21:12;;;;;;;1.40;0.50;;;4.90;99.90;;;;;;5116963;28;20062;-65
2022/12/06 03:23:44;;;;;;;2.15;0.60;;;5.70;99.90;;;;;;5116684;28;20142;-65
2022/12/06 03:26:13;;;;;;;1.00;0.50;;;5.90;99.90;;;;;;5116363;27;20043;-65
2022/12/06 03:28:40;;;;;;;2.13;0.60;;;5.00;99.90;;;;;;5134913;27;20039;-65
2022/12/06 03:31:10;;;;;;;3.58;0.82;;;5.50;99.90;;;;;;5134460;27;20553;-65
2022/12/06 03:33:41;;;;;;;2.33;0.90;;;5.30;99.90;;;;;;5116658;27;20481;-65
2022/12/06 03:36:09;;;;;;;1.30;0.50;;;5.30;99.90;;;;;;5134975;27;20161;-65
2022/12/06 03:39:04;;;;;;;1.50;0.60;;;5.80;99.90;;;;;;5134200;28;20482;-65
2022/12/06 03:41:38;;;;;;;1.15;0.50;;;5.00;99.90;;;;;;5130717;28;20055;-65
2022/12/06 03:44:04;;;;;;;3.47;0.50;;;5.00;99.90;;;;;;5100343;28;20051;-66
2022/12/06 03:46:35;;;;;;;3.08;0.60;;;5.60;99.90;;;;;;5134503;28;20058;-65
2022/12/06 03:49:06;;;;;;;5.88;0.98;;;5.50;99.90;;;;;;5135058;27;20414;-66
2022/12/06 03:51:35;;;;;;;1.75;0.52;;;5.50;99.90;;;;;;5120350;27;20510;-66
2022/12/06 03:54:06;;;;;;;1.60;0.40;;;5.10;99.90;;;;;;5138471;27;20055;-65
2022/12/06 03:56:36;;;;;;;1.00;0.40;;;5.50;99.90;;;;;;5139520;27;20076;-65
2022/12/06 03:59:06;;;;;;;1.40;0.50;;;5.20;99.90;;;;;;5138577;27;20043;-65
2022/12/06 04:01:32;;;;;;;1.05;0.40;;;5.70;99.90;;;;;;5121275;27;20043;-65
2022/12/06 04:03:58;;;;;;;1.52;0.60;;;5.40;99.90;;;;;;5138417;27;20083;-65
2022/12/06 04:06:24;;;;;;;1.90;0.50;;;5.30;99.90;;;;;;5138381;27;20086;-65
2022/12/06 04:08:50;;;;;;;2.90;0.60;;;4.80;99.90;;;;;;5138384;27;20055;-65
2022/12/06 04:11:16;;;;;;;1.30;0.43;;;5.00;99.90;;;;;;5103499;27;20050;-65
2022/12/06 04:13:41;;;;;;;0.60;0.40;;;5.80;99.90;;;;;;5121071;27;20055;-65
2022/12/06 04:18:09;;;;;;;1.00;0.30;;;5.20;99.90;;;;;;5138361;27;20086;-66
2022/12/06 04:18:54;;;;;;;0.40;0.30;;;5.20;99.90;;;;;;5120840;27;20057;-65
2022/12/06 04:23:59;;;;;;;0.40;0.20;;;5.40;99.90;;;;;;5138934;27;20061;-65
2022/12/06 04:26:25;;;;;;;0.40;0.20;;;5.10;99.90;;;;;;5154379;27;20043;-65
2022/12/06 04:39:52;;;;;;;0.80;0.20;;;5.40;99.90;;;;;;5138417;27;20047;-65
2022/12/06 04:45:03;;;;;;;0.50;0.20;;;5.40;99.90;;;;;;5138856;27;20070;-65
2022/12/06 04:47:30;;;;;;;0.60;0.30;;;4.90;99.90;;;;;;5138218;27;20123;-66
2022/12/06 04:49:55;;;;;;;0.73;0.20;;;5.50;99.90;;;;;;5138444;27;20222;-65
2022/12/06 04:52:21;;;;;;;0.40;0.20;;;5.50;99.90;;;;;;5119258;27;20076;-65
2022/12/06 04:54:47;;;;;;;1.30;0.20;;;5.70;99.90;;;;;;5137476;27;20051;-66
2022/12/06 04:57:15;;;;;;;1.15;0.20;;;5.40;99.90;;;;;;5138064;27;20592;-66
2022/12/06 04:59:42;;;;;;;0.70;0.30;;;5.30;99.90;;;;;;5137680;27;20475;-65
2022/12/06 05:02:11;;;;;;;1.45;0.30;;;5.10;99.90;;;;;;5118536;27;20047;-65
2022/12/06 05:04:37;;;;;;;1.77;0.20;;;5.10;99.90;;;;;;5137869;27;20043;-66
2022/12/06 05:07:03;;;;;;;2.10;0.20;;;6.20;99.90;;;;;;5137174;27;20043;-65
2022/12/06 05:09:29;;;;;;;1.02;0.30;;;4.90;99.90;;;;;;5119215;27;20047;-65
2022/12/06 05:11:55;;;;;;;1.70;0.20;;;5.30;99.90;;;;;;5137998;27;20126;-65
2022/12/06 05:14:20;;;;;;;1.30;0.30;;;5.00;99.90;;;;;;5137748;27;20047;-65
2022/12/06 05:16:46;;;;;;;1.23;0.30;;;5.70;99.90;;;;;;5137073;27;20039;-65
2022/12/06 05:19:13;;;;;;;0.45;0.30;;;5.20;99.90;;;;;;5137061;27;20039;-65
2022/12/06 05:21:39;;;;;;;0.30;0.20;;;5.30;99.90;;;;;;5136954;27;20051;-65
2022/12/06 05:24:05;;;;;;;0.50;0.40;;;5.10;99.90;;;;;;5118903;27;20485;-65
2022/12/06 05:26:30;;;;;;;0.40;0.25;;;5.00;99.90;;;;;;5136907;27;20050;-65
2022/12/06 05:28:57;;;;;;;2.25;0.30;;;5.00;99.90;;;;;;5136878;27;20039;-65
2022/12/06 05:31:24;;;;;;;0.73;0.20;;;5.10;99.90;;;;;;5102325;27;20102;-65
2022/12/06 05:33:50;;;;;;;0.60;0.30;;;5.40;99.90;;;;;;5136879;27;20047;-65
2022/12/06 05:36:20;;;;;;;1.85;0.30;;;5.30;99.90;;;;;;5136738;27;20049;-65
2022/12/06 05:38:47;;;;;;;0.98;0.40;;;5.20;99.90;;;;;;5136545;27;20100;-65
2022/12/06 05:41:13;;;;;;;1.42;0.40;;;5.60;99.90;;;;;;5136638;27;20391;-65
2022/12/06 05:43:38;;;;;;;0.60;0.32;;;5.00;99.90;;;;;;5137135;27;20379;-65
2022/12/06 05:46:05;;;;;;;1.77;0.35;;;5.50;99.90;;;;;;5118149;27;20043;-66
2022/12/06 05:48:31;;;;;;;1.08;0.30;;;5.40;99.90;;;;;;5137047;27;20399;-65
2022/12/06 05:50:57;;;;;;;0.40;0.30;;;5.70;99.90;;;;;;5136454;27;20047;-65
2022/12/06 05:53:23;;;;;;;1.17;0.30;;;5.10;99.90;;;;;;5136047;27;20059;-65
2022/12/06 05:55:49;;;;;;;1.02;0.30;;;5.70;99.90;;;;;;5101249;27;20114;-65
2022/12/06 05:58:16;;;;;;;0.80;0.40;;;5.70;99.90;;;;;;5135979;27;20042;-66
2022/12/06 06:00:46;;;;;;;0.73;0.40;;;5.80;99.90;;;;;;5101104;27;20055;-65
2022/12/06 06:03:11;;;;;;;1.00;0.50;;;5.70;99.90;;;;;;5118544;27;20055;-65
2022/12/06 06:05:43;;;;;;;1.95;0.50;;;5.70;99.90;;;;;;5136102;27;20126;-65
2022/12/06 06:08:09;;;;;;;2.47;0.40;;;5.10;99.90;;;;;;5117833;27;20054;-65
2022/12/06 06:10:34;;;;;;;0.85;0.40;;;5.50;99.90;;;;;;5118326;27;20043;-65
2022/12/06 06:13:00;;;;;;;1.30;0.45;;;4.90;99.90;;;;;;5100883;27;20426;-65
2022/12/06 06:15:26;;;;;;;1.98;0.47;;;5.50;99.90;;;;;;5136259;27;20047;-65
2022/12/06 06:17:51;;;;;;;0.98;0.45;;;5.30;99.90;;;;;;5135928;27;20054;-65
2022/12/06 06:20:17;;;;;;;0.93;0.40;;;4.90;99.90;;;;;;5135847;27;20078;-65
2022/12/06 06:22:43;;;;;;;0.68;0.40;;;4.80;99.90;;;;;;5136291;27;20039;-66
2022/12/06 06:25:09;;;;;;;1.98;0.50;;;5.50;99.90;;;;;;5136282;27;20415;-65
2022/12/06 06:27:36;;;;;;;2.55;0.65;;;5.50;99.90;;;;;;5135769;27;20047;-65
2022/12/06 06:30:07;;;;;;;1.08;0.60;;;5.00;99.90;;;;;;5135638;27;20103;-65
2022/12/06 06:32:34;;;;;;;2.20;0.70;;;4.80;99.90;;;;;;5118354;27;20058;-65
2022/12/06 06:35:00;;;;;;;3.13;1.20;;;4.70;99.90;;;;;;5135480;27;20054;-65
2022/12/06 06:37:25;;;;;;;6.68;0.90;;;5.10;99.90;;;;;;5117245;27;20046;-65
2022/12/06 06:39:51;;;;;;;2.70;0.70;;;4.80;99.90;;;;;;5135491;27;20130;-65
2022/12/06 06:42:17;;;;;;;1.65;0.70;;;5.20;99.90;;;;;;5135883;27;20035;-65
2022/12/06 06:44:43;;;;;;;2.50;0.85;;;4.60;99.90;;;;;;5135363;27;20050;-65
2022/12/06 06:47:09;;;;;;;2.80;0.90;;;4.50;99.90;;;;;;5117232;27;20387;-65
2022/12/06 06:49:35;;;;;;;4.20;0.70;;;5.40;99.90;;;;;;5134937;27;20040;-65
2022/12/06 06:52:00;;;;;;;1.63;0.70;;;4.50;99.90;;;;;;5135445;27;20046;-65
2022/12/06 06:54:29;;;;;;;4.20;0.90;;;4.80;99.90;;;;;;5116861;27;20055;-66
2022/12/06 06:56:55;;;;;;;4.28;1.15;;;4.80;99.90;;;;;;5135131;27;20058;-65
2022/12/06 06:59:22;;;;;;;2.00;0.90;;;4.60;99.90;;;;;;5117783;27;20051;-65
2022/12/06 07:01:48;;;;;;;1.40;0.80;;;4.40;99.90;;;;;;5134708;27;20502;-66
2022/12/06 07:04:14;;;;;;;1.65;0.80;;;5.10;99.90;;;;;;5116892;27;20035;-65
2022/12/06 07:06:40;;;;;;;3.63;0.98;;;4.40;99.90;;;;;;5134857;27;20051;-66
2022/12/06 07:09:06;;;;;;;1.88;0.95;;;4.70;99.90;;;;;;5134912;27;20126;-66
2022/12/06 07:11:31;;;;;;;3.05;1.05;;;4.70;99.90;;;;;;5135438;27;20469;-66
2022/12/06 07:13:57;;;;;;;2.08;0.90;;;4.60;99.90;;;;;;5134851;27;20115;-65
2022/12/06 07:16:23;;;;;;;3.22;1.00;;;4.60;99.90;;;;;;5134909;27;20390;-65
2022/12/06 07:18:48;;;;;;;4.13;0.95;;;4.60;99.90;;;;;;5135238;27;20372;-65
2022/12/06 07:21:15;;;;;;;2.60;1.00;;;4.20;99.90;;;;;;5134778;27;20043;-65
2022/12/06 07:23:41;;;;;;;4.40;1.30;;;4.40;99.90;;;;;;5134423;27;20082;-65
2022/12/06 07:26:09;;;;;;;2.05;1.10;;;5.00;99.90;;;;;;5134754;27;20482;-65
2022/12/06 07:28:36;;;;;;;2.25;1.23;;;4.50;99.90;;;;;;5117063;27;20125;-65
2022/12/06 07:31:10;;;;;;;1.52;0.93;;;4.30;99.90;;;;;;5116353;28;20047;-66
2022/12/06 07:33:36;;;;;;;3.08;1.00;;;4.40;99.90;;;;;;5116530;28;20043;-65
2022/12/06 07:36:02;;;;;;;2.17;1.00;;;4.10;99.90;;;;;;5135719;27;20047;-65
2022/12/06 07:38:28;;;;;;;2.38;1.10;;;4.10;99.90;;;;;;5134489;28;20187;-66
2022/12/06 07:40:59;;;;;;;2.50;1.20;;;4.10;99.90;;;;;;5134871;28;20054;-65
2022/12/06 07:46:10;;;;;;;3.97;1.10;;;4.10;99.90;;;;;;5135147;28;20043;-65
2022/12/06 07:48:36;;;;;;;3.47;1.40;;;3.90;99.90;;;;;;5135165;28;20070;-65
2022/12/06 07:51:04;;;;;;;3.40;1.58;;;4.60;99.90;;;;;;5135058;28;20463;-65
2022/12/06 07:53:29;;;;;;;3.00;1.40;;;3.70;99.90;;;;;;5134154;28;20146;-66
2022/12/06 07:55:55;;;;;;;2.85;1.40;;;3.80;99.90;;;;;;5134393;28;20078;-66
2022/12/06 07:58:21;;;;;;;4.38;1.20;;;4.30;99.90;;;;;;5134343;28;20047;-66
2022/12/06 08:00:47;;;;;;;2.58;1.60;;;3.80;99.90;;;;;;5134405;28;20043;-65
2022/12/06 08:03:12;;;;;;;2.58;1.50;;;3.70;99.90;;;;;;5134235;28;20047;-65
2022/12/06 08:05:39;;;;;;;3.17;1.13;;;4.30;99.90;;;;;;5134675;28;20140;-65
2022/12/06 08:08:04;;;;;;;3.33;1.30;;;4.40;99.90;;;;;;5134194;28;20092;-66
2022/12/06 08:10:30;;;;;;;4.05;1.23;;;5.30;99.90;;;;;;5116243;28;20047;-66
2022/12/06 08:12:56;;;;;;;2.70;1.60;;;3.90;99.90;;;;;;5134461;28;20042;-66
2022/12/06 08:15:21;;;;;;;3.25;1.00;;;3.50;99.90;;;;;;5134225;28;20448;-66
2022/12/06 08:17:47;;;;;;;2.80;1.20;;;4.70;99.90;;;;;;5134259;28;20043;-66
2022/12/06 08:20:13;;;;;;;2.20;1.40;;;3.80;99.90;;;;;;5115922;28;20043;-65
2022/12/06 08:22:38;;;;;;;3.33;1.30;;;4.00;99.90;;;;;;5116253;28;20494;-66
2022/12/06 08:25:05;;;;;;;2.83;1.10;;;3.50;99.90;;;;;;5134126;28;20516;-66
2022/12/06 08:27:30;;;;;;;1.55;0.93;;;3.50;99.90;;;;;;5134656;28;20051;-66
2022/12/06 08:29:56;;;;;;;3.47;1.35;;;4.00;99.90;;;;;;5116093;28;20046;-66
2022/12/06 08:32:21;;;;;;;3.90;1.30;;;3.40;99.90;;;;;;5115789;28;20119;-65
2022/12/06 08:34:47;;;;;;;1.83;1.30;;;3.70;99.90;;;;;;5115925;27;20078;-66
2022/12/06 08:37:13;;;;;;;4.05;1.20;;;3.60;99.90;;;;;;5119067;27;20043;-66
2022/12/06 08:39:38;;;;;;;2.35;1.17;;;3.80;99.90;;;;;;5138010;27;20035;-65
2022/12/06 08:42:06;;;;;;;2.88;1.40;;;3.50;99.90;;;;;;5119445;27;20448;-66
2022/12/06 08:44:32;;;;;;;4.28;1.30;;;3.50;99.90;;;;;;5138691;27;20387;-66
2022/12/06 08:47:00;;;;;;;2.88;1.25;;;3.60;99.90;;;;;;5138420;27;20043;-66
2022/12/06 08:49:27;;;;;;;2.33;1.20;;;3.70;99.90;;;;;;5102636;27;20086;-66
2022/12/06 08:51:53;;;;;;;2.65;1.65;;;3.50;99.90;;;;;;5137987;27;20475;-66
2022/12/06 08:54:21;;;;;;;3.88;1.35;;;3.70;99.90;;;;;;5137718;27;20107;-66
2022/12/06 08:56:48;;;;;;;2.97;1.10;;;4.20;99.90;;;;;;5138218;27;20058;-66
2022/12/06 08:59:14;;;;;;;2.13;1.05;;;4.30;99.90;;;;;;5119197;27;20125;-66
2022/12/06 09:01:40;;;;;;;3.47;1.52;;;4.20;99.90;;;;;;5137253;27;20509;-65
2022/12/06 09:04:08;;;;;;;2.15;1.10;;;4.00;99.90;;;;;;5138310;27;20043;-65
2022/12/06 09:06:36;;;;;;;3.80;1.80;;;4.10;99.90;;;;;;5137496;27;20047;-66
2022/12/06 09:09:02;;;;;;;2.28;1.48;;;3.70;99.90;;;;;;5137316;27;20082;-66
2022/12/06 09:11:27;;;;;;;5.03;2.03;;;3.80;99.90;;;;;;5137353;27;20108;-66
2022/12/06 09:13:53;;;;;;;5.07;2.17;;;4.40;99.90;;;;;;5119398;27;20429;-66
2022/12/06 09:16:22;;;;;;;3.85;1.60;;;4.00;99.90;;;;;;5118705;27;20043;-66
2022/12/06 09:18:50;;;;;;;5.70;1.73;;;3.90;99.90;;;;;;5136872;27;20486;-67
2022/12/06 09:21:19;;;;;;;6.38;2.00;;;4.20;99.90;;;;;;5137215;27;20046;-66
2022/12/06 09:23:45;;;;;;;4.38;1.65;;;4.50;99.90;;;;;;5137039;27;20039;-66
2022/12/06 09:26:12;;;;;;;4.72;1.83;;;4.10;99.90;;;;;;5101674;27;20085;-66
2022/12/06 09:28:39;;;;;;;3.13;1.65;;;5.00;99.90;;;;;;5137013;27;20039;-66
2022/12/06 09:31:06;;;;;;;3.63;1.40;;;4.50;99.90;;;;;;5136960;27;20058;-66
2022/12/06 09:33:33;;;;;;;3.03;2.00;;;4.30;99.90;;;;;;5136841;27;20082;-66
2022/12/06 09:36:05;;;;;;;5.60;2.40;;;4.50;99.90;;;;;;5119612;27;20043;-66
2022/12/06 09:38:32;;;;;;;6.72;2.63;;;4.60;99.90;;;;;;5137577;27;20043;-66
2022/12/06 09:41:21;;;;;;;4.68;2.83;;;4.90;99.90;;;;;;5119497;27;20051;-66
2022/12/06 09:44:37;;;;;;;4.43;2.22;;;4.30;99.90;;;;;;5136744;27;20053;-67
2022/12/06 09:47:32;;;;;;;9.45;2.35;;;4.30;99.90;;;;;;5063080;27;20393;-67
2022/12/06 09:50:05;;;;;;;7.68;2.50;;;4.30;99.90;;;;;;5136615;27;20050;-67
2022/12/06 09:52:49;;;;;;;3.83;2.00;;;4.80;99.90;;;;;;5137102;27;20104;-66
2022/12/06 09:55:37;;;;;;;7.15;2.30;;;4.60;99.90;;;;;;5118436;27;20432;-67
2022/12/06 09:58:23;;;;;;;5.43;2.10;;;4.80;99.90;;;;;;5136744;27;20046;-66
2022/12/06 10:01:03;;;;;;;3.92;1.92;;;4.30;99.90;;;;;;5118048;27;20058;-67
2022/12/06 10:03:50;;;;;;;4.65;1.70;;;4.50;99.90;;;;;;5117981;27;20049;-66
2022/12/06 10:06:19;;;;;;;4.70;1.88;;;4.30;99.90;;;;;;5118570;27;20047;-66
2022/12/06 10:09:04;;;;;;;4.72;1.30;;;5.00;99.90;;;;;;5118127;27;20047;-66
2022/12/06 10:12:14;;;;;;;8.13;1.83;;;4.50;99.90;;;;;;5135878;27;20467;-65
2022/12/06 10:15:01;;;;;;;6.95;2.33;;;4.60;99.90;;;;;;5118306;27;20107;-65
2022/12/06 10:18:05;;;;;;;4.25;1.60;;;4.60;99.90;;;;;;5136047;27;20053;-66
2022/12/06 10:20:37;;;;;;;6.50;1.90;;;4.60;99.90;;;;;;5117943;27;20058;-65
2022/12/06 10:23:33;;;;;;;3.75;1.90;;;4.70;99.90;;;;;;5117599;27;20043;-65
2022/12/06 10:26:18;;;;;;;3.88;1.38;;;4.70;99.90;;;;;;5136155;27;20111;-66
2022/12/06 10:29:08;;;;;;;4.18;1.40;;;4.90;99.90;;;;;;5136659;27;20051;-66
2022/12/06 10:31:51;;;;;;;3.70;1.10;;;4.90;99.90;;;;;;5097234;27;20055;-65
2022/12/06 10:34:37;;;;;;;4.18;0.90;;;5.00;99.90;;;;;;5135799;27;20050;-65
2022/12/06 10:37:09;;;;;;;2.35;0.90;;;5.70;99.90;;;;;;5135414;27;20043;-66
2022/12/06 10:39:52;;;;;;;1.90;0.93;;;5.00;99.90;;;;;;5135880;27;20047;-65
2022/12/06 10:42:40;;;;;;;3.10;0.90;;;5.40;99.90;;;;;;5135575;27;20035;-65
2022/12/06 10:48:25;;;;;;;1.73;1.05;;;5.50;99.90;;;;;;5135475;27;20107;-65
2022/12/06 10:50:58;;;;;;;2.50;1.00;;;5.30;99.90;;;;;;5135438;27;20055;-65
2022/12/06 10:53:27;;;;;;;4.70;0.90;;;5.90;99.90;;;;;;5135224;27;20113;-65
2022/12/06 10:55:59;;;;;;;1.80;0.82;;;5.80;99.90;;;;;;5135520;27;20133;-66
2022/12/06 10:58:47;;;;;;;3.20;0.95;;;5.50;99.90;;;;;;5135475;27;20039;-65
2022/12/06 11:01:22;;;;;;;3.00;0.90;;;5.60;99.90;;;;;;5117229;27;20104;-65
2022/12/06 11:04:08;;;;;;;1.58;0.90;;;5.50;99.90;;;;;;5134871;27;20047;-65
2022/12/06 11:06:58;;;;;;;5.57;1.90;;;5.60;99.90;;;;;;5135203;27;20047;-66
2022/12/06 11:09:41;;;;;;;3.92;1.40;;;5.90;99.90;;;;;;5119910;27;20051;-66
2022/12/06 11:12:30;;;;;;;3.65;1.63;;;5.70;99.90;;;;;;5134991;27;20050;-65
2022/12/06 11:15:32;;;;;;;3.60;1.85;;;5.90;99.90;;;;;;5116425;27;20062;-65
2022/12/06 11:18:22;;;;;;;1.80;0.93;;;5.70;99.90;;;;;;5134883;27;20047;-66
2022/12/06 11:21:14;;;;;;;3.38;0.70;;;5.90;99.90;;;;;;5134609;27;20375;-65
2022/12/06 11:23:52;;;;;;;4.38;0.93;;;6.40;99.90;;;;;;5135319;27;20432;-66
2022/12/06 11:26:26;;;;;;;2.97;1.17;;;5.90;99.90;;;;;;5116639;27;20432;-65
2022/12/06 11:29:08;;;;;;;2.20;0.98;;;6.40;99.90;;;;;;5134759;27;20107;-66
2022/12/06 11:31:52;;;;;;;2.08;0.90;;;5.90;99.90;;;;;;5116989;27;20051;-65
2022/12/06 11:34:52;;;;;;;2.03;0.80;;;6.30;99.90;;;;;;5134721;27;20087;-66
2022/12/06 11:37:24;;;;;;;4.10;0.93;;;6.50;99.90;;;;;;5129809;27;20047;-66
2022/12/06 11:39:57;;;;;;;1.95;0.80;;;6.40;99.90;;;;;;5117457;28;20058;-65
2022/12/06 11:42:26;;;;;;;3.10;0.70;;;6.10;99.90;;;;;;5117247;28;20043;-66
2022/12/06 11:45:34;;;;;;;2.63;1.15;;;6.40;99.90;;;;;;5099247;28;20096;-66
2022/12/06 11:48:06;;;;;;;2.38;0.82;;;6.00;99.90;;;;;;5130233;28;20059;-66
2022/12/06 11:50:35;;;;;;;2.92;0.80;;;6.50;99.90;;;;;;5134589;28;20048;-66
2022/12/06 11:53:17;;;;;;;1.60;0.90;;;6.40;99.90;;;;;;5134225;28;20129;-66
2022/12/06 11:55:47;;;;;;;2.35;0.90;;;6.20;99.90;;;;;;5117199;28;20051;-66
2022/12/06 11:58:25;;;;;;;1.92;0.82;;;6.10;99.90;;;;;;5134740;28;20062;-66
2022/12/06 12:01:01;;;;;;;3.60;1.00;;;6.30;99.90;;;;;;5116940;28;20047;-66
2022/12/06 12:03:41;;;;;;;2.22;1.00;;;6.60;99.90;;;;;;5134800;28;20092;-66
2022/12/06 12:06:25;;;;;;;2.08;0.95;;;6.30;99.90;;;;;;5134481;28;20046;-65
2022/12/06 12:09:17;;;;;;;4.18;0.93;;;6.50;99.90;;;;;;5116175;28;20062;-65
2022/12/06 12:11:42;;;;;;;1.52;1.10;;;6.20;99.90;;;;;;5137754;27;20116;-66
2022/12/06 12:14:26;;;;;;;1.33;0.73;;;6.20;99.90;;;;;;5138438;27;20039;-66
2022/12/06 12:16:57;;;;;;;1.55;0.85;;;6.40;99.90;;;;;;5120213;27;20498;-66
2022/12/06 12:19:41;;;;;;;1.83;0.80;;;6.60;99.90;;;;;;5120433;27;20057;-66
2022/12/06 12:22:38;;;;;;;1.48;0.70;;;6.20;99.90;;;;;;5139098;27;20054;-65
2022/12/06 12:25:24;;;;;;;3.38;0.80;;;6.20;99.90;;;;;;5102263;27;20055;-65
2022/12/06 12:27:52;;;;;;;3.53;1.30;;;6.30;99.90;;;;;;5138581;27;20114;-65
2022/12/06 12:30:34;;;;;;;1.70;0.93;;;6.30;99.90;;;;;;5138915;27;20127;-65
2022/12/06 12:33:06;;;;;;;1.92;0.70;;;6.40;99.90;;;;;;5138899;27;20043;-65
2022/12/06 12:35:40;;;;;;;2.35;0.98;;;6.30;99.90;;;;;;5120705;27;20049;-65
2022/12/06 12:38:20;;;;;;;2.80;0.90;;;6.60;99.90;;;;;;5138475;27;20050;-65
2022/12/06 12:41:01;;;;;;;2.15;1.05;;;6.40;99.90;;;;;;5119719;27;20391;-65
2022/12/06 12:43:32;;;;;;;2.30;1.10;;;6.30;99.90;;;;;;5120294;27;20536;-66
2022/12/06 12:46:10;;;;;;;1.70;0.90;;;6.50;99.90;;;;;;5119694;27;20043;-66
2022/12/06 12:48:38;;;;;;;3.13;0.75;;;6.20;99.90;;;;;;5138554;27;20039;-66
2022/12/06 12:51:28;;;;;;;1.73;0.70;;;7.00;99.90;;;;;;5119446;27;20043;-66
2022/12/06 12:53:57;;;;;;;2.35;0.98;;;6.40;99.90;;;;;;5137591;27;20047;-66
2022/12/06 12:56:23;;;;;;;1.02;0.60;;;7.00;99.90;;;;;;5119932;27;20047;-66
2022/12/06 12:58:53;;;;;;;2.47;0.63;;;6.70;99.90;;;;;;5119538;27;20039;-66
2022/12/06 13:01:24;;;;;;;1.90;0.68;;;6.70;99.90;;;;;;5138421;27;20043;-65
2022/12/06 13:04:10;;;;;;;2.05;0.60;;;6.30;99.90;;;;;;5137519;27;20039;-66
2022/12/06 13:06:51;;;;;;;0.93;0.60;;;6.30;99.90;;;;;;5102809;27;20043;-66
2022/12/06 13:09:36;;;;;;;1.55;0.60;;;6.40;99.90;;;;;;5119178;27;20481;-65
2022/12/06 13:12:15;;;;;;;3.78;0.80;;;6.50;99.90;;;;;;5120206;27;20128;-67
2022/12/06 13:14:50;;;;;;;1.30;0.63;;;6.40;99.90;;;;;;5137972;27;20390;-65
2022/12/06 13:17:17;;;;;;;3.05;0.85;;;6.50;99.90;;;;;;5137704;27;20434;-66
2022/12/06 13:19:46;;;;;;;2.15;0.80;;;6.40;99.90;;;;;;5119254;27;20039;-65
2022/12/06 13:22:25;;;;;;;1.50;0.90;;;6.30;99.90;;;;;;5118691;27;20051;-66
2022/12/06 13:25:03;;;;;;;2.78;0.90;;;6.60;99.90;;;;;;5137296;27;20046;-66
2022/12/06 13:27:34;;;;;;;2.38;0.80;;;6.50;99.90;;;;;;5118933;27;20039;-65
2022/12/06 13:30:24;;;;;;;1.42;0.70;;;6.60;99.90;;;;;;5137170;27;20042;-65
2022/12/06 13:32:57;;;;;;;1.52;0.80;;;6.40;99.90;;;;;;5137107;27;20047;-65
2022/12/06 13:35:39;;;;;;;4.32;1.10;;;6.90;99.90;;;;;;5137669;27;20507;-65
2022/12/06 13:38:16;;;;;;;1.30;0.70;;;6.30;99.90;;;;;;5137453;27;20054;-66
2022/12/06 13:40:56;;;;;;;1.65;0.70;;;6.60;99.90;;;;;;5118769;27;20533;-65
2022/12/06 13:43:22;;;;;;;1.88;0.75;;;6.30;99.90;;;;;;5118818;27;20035;-66
2022/12/06 13:45:52;;;;;;;1.60;0.88;;;6.50;99.90;;;;;;5101626;27;20049;-65